createdAt,value
2019-05-03T00:00:42.524Z,76.23
2019-05-03T00:02:16.585Z,76.63
2019-05-03T00:03:20.168Z,76.81
2019-05-03T00:04:23.699Z,76.92
2019-05-03T00:05:32.443Z,77.15
2019-05-03T00:06:36.061Z,76.58
2019-05-03T00:07:39.590Z,76.43
2019-05-03T00:08:43.257Z,76.29
2019-05-03T00:09:47.031Z,76.64
2019-05-03T00:10:51.774Z,76.67
2019-05-03T00:11:55.324Z,76.76
2019-05-03T00:12:58.790Z,76.70
2019-05-03T00:14:02.295Z,76.71
2019-05-03T00:15:17.557Z,76.65
2019-05-03T00:16:32.534Z,77.00
2019-05-03T00:17:36.099Z,77.40
2019-05-03T00:18:39.568Z,77.54
2019-05-03T00:19:43.076Z,77.66
2019-05-03T00:20:46.604Z,77.46
2019-05-03T00:21:50.052Z,77.16
2019-05-03T00:22:53.555Z,77.47
2019-05-03T00:23:57.060Z,77.12
2019-05-03T00:25:05.882Z,77.40
2019-05-03T00:26:05.787Z,77.15
2019-05-03T00:27:09.227Z,77.43
2019-05-03T00:28:13.291Z,77.49
2019-05-03T00:29:16.849Z,77.29
2019-05-03T00:30:22.413Z,76.81
2019-05-03T00:31:25.451Z,77.55
2019-05-03T00:32:29.555Z,77.43
2019-05-03T00:33:33.128Z,77.49
2019-05-03T00:34:55.780Z,77.91
2019-05-03T00:36:12.520Z,78.27
2019-05-03T00:37:22.072Z,77.92
2019-05-03T00:38:25.747Z,77.88
2019-05-03T00:39:32.474Z,78.05
2019-05-03T00:40:36.115Z,78.04
2019-05-03T00:41:39.782Z,78.03
2019-05-03T00:42:43.163Z,78.29
2019-05-03T00:43:46.645Z,78.75
2019-05-03T00:44:51.683Z,78.70
2019-05-03T00:45:55.186Z,78.65
2019-05-03T00:46:58.685Z,78.64
2019-05-03T00:48:02.200Z,78.26
2019-05-03T00:49:05.766Z,78.47
2019-05-03T00:50:09.328Z,78.39
2019-05-03T00:51:12.856Z,78.23
2019-05-03T00:52:16.303Z,78.04
2019-05-03T00:53:19.818Z,78.14
2019-05-03T00:54:23.326Z,78.38
2019-05-03T00:55:26.757Z,78.21
2019-05-03T00:56:32.056Z,78.28
2019-05-03T00:57:35.682Z,78.14
2019-05-03T00:58:49.820Z,78.13
2019-05-03T00:59:53.263Z,78.39
2019-05-03T01:00:56.771Z,78.55
2019-05-03T01:02:02.529Z,78.66
2019-05-03T01:03:05.514Z,78.37
2019-05-03T01:04:09.023Z,78.25
2019-05-03T01:05:12.692Z,78.51
2019-05-03T01:06:16.188Z,78.35
2019-05-03T01:07:19.816Z,79.08
2019-05-03T01:08:23.251Z,78.98
2019-05-03T01:09:27.923Z,78.71
2019-05-03T01:10:33.055Z,79.02
2019-05-03T01:11:36.650Z,79.04
2019-05-03T01:12:41.635Z,79.41
2019-05-03T01:13:45.093Z,79.07
2019-05-03T01:14:51.563Z,78.90
2019-05-03T01:16:05.519Z,78.72
2019-05-03T01:17:09.018Z,78.70
2019-05-03T01:18:14.177Z,78.74
2019-05-03T01:19:17.678Z,78.69
2019-05-03T01:20:22.568Z,79.03
2019-05-03T01:21:26.035Z,79.32
2019-05-03T01:22:29.505Z,79.17
2019-05-03T01:23:32.939Z,78.80
2019-05-03T01:24:37.299Z,78.68
2019-05-03T01:25:42.760Z,78.77
2019-05-03T01:26:46.733Z,78.88
2019-05-03T01:27:52.038Z,78.96
2019-05-03T01:28:55.934Z,78.87
2019-05-03T01:29:59.540Z,79.08
2019-05-03T01:31:03.356Z,78.99
2019-05-03T01:32:07.410Z,79.02
2019-05-03T01:33:12.127Z,79.04
2019-05-03T01:34:15.759Z,79.19
2019-05-03T01:35:19.200Z,78.99
2019-05-03T01:36:23.220Z,79.16
2019-05-03T01:37:27.368Z,79.19
2019-05-03T01:38:31.989Z,79.12
2019-05-03T01:39:35.793Z,79.11
2019-05-03T01:40:41.783Z,79.16
2019-05-03T01:41:44.849Z,79.15
2019-05-03T01:42:48.528Z,79.08
2019-05-03T01:43:52.762Z,78.80
2019-05-03T01:44:56.325Z,79.04
2019-05-03T01:46:02.503Z,79.28
2019-05-03T01:47:07.702Z,79.43
2019-05-03T01:48:15.734Z,79.38
2019-05-03T01:49:36.913Z,79.35
2019-05-03T01:51:00.406Z,79.51
2019-05-03T01:52:12.798Z,79.24
2019-05-03T01:53:21.640Z,79.50
2019-05-03T01:54:25.416Z,79.56
2019-05-03T01:55:43.923Z,79.51
2019-05-03T01:56:39.695Z,79.27
2019-05-03T01:57:43.381Z,79.27
2019-05-03T01:58:46.981Z,79.37
2019-05-03T01:59:52.103Z,79.54
2019-05-03T02:00:57.419Z,79.58
2019-05-03T02:02:17.390Z,79.78
2019-05-03T02:03:38.961Z,80.33
2019-05-03T02:04:44.057Z,80.42
2019-05-03T02:05:49.631Z,80.46
2019-05-03T02:06:53.404Z,80.44
2019-05-03T02:07:56.912Z,80.29
2019-05-03T02:09:01.609Z,80.36
2019-05-03T02:10:08.148Z,80.68
2019-05-03T02:11:11.721Z,80.73
2019-05-03T02:12:15.101Z,80.54
2019-05-03T02:13:18.612Z,80.68
2019-05-03T02:14:22.233Z,80.73
2019-05-03T02:15:25.802Z,80.60
2019-05-03T02:16:29.299Z,80.90
2019-05-03T02:17:32.729Z,81.02
2019-05-03T02:18:36.224Z,81.11
2019-05-03T02:19:39.698Z,81.02
2019-05-03T02:20:43.127Z,81.14
2019-05-03T02:21:46.637Z,80.98
2019-05-03T02:22:52.060Z,80.79
2019-05-03T02:23:55.236Z,80.73
2019-05-03T02:24:58.696Z,81.08
2019-05-03T02:26:03.078Z,81.13
2019-05-03T02:27:06.639Z,81.08
2019-05-03T02:28:10.215Z,80.90
2019-05-03T02:29:13.717Z,80.87
2019-05-03T02:30:17.332Z,80.85
2019-05-03T02:31:23.195Z,80.77
2019-05-03T02:32:25.975Z,80.79
2019-05-03T02:33:29.417Z,80.79
2019-05-03T02:34:32.988Z,80.73
2019-05-03T02:35:36.485Z,80.46
2019-05-03T02:36:42.544Z,80.56
2019-05-03T02:37:46.773Z,80.80
2019-05-03T02:38:50.278Z,80.97
2019-05-03T02:39:56.202Z,80.96
2019-05-03T02:41:02.733Z,81.05
2019-05-03T02:42:10.906Z,80.99
2019-05-03T02:43:11.728Z,81.04
2019-05-03T02:44:16.864Z,81.36
2019-05-03T02:45:22.089Z,81.23
2019-05-03T02:46:35.860Z,81.19
2019-05-03T02:47:40.090Z,81.09
2019-05-03T02:48:57.204Z,81.02
2019-05-03T02:50:02.284Z,80.66
2019-05-03T02:51:06.561Z,80.60
2019-05-03T02:52:11.805Z,80.45
2019-05-03T02:53:15.843Z,80.22
2019-05-03T02:54:19.310Z,80.38
2019-05-03T02:55:25.733Z,80.48
2019-05-03T02:56:27.926Z,80.67
2019-05-03T02:57:31.458Z,80.81
2019-05-03T02:58:35.853Z,81.12
2019-05-03T02:59:39.354Z,81.18
2019-05-03T03:01:06.279Z,81.21
2019-05-03T03:02:08.536Z,80.97
2019-05-03T03:03:12.312Z,80.92
2019-05-03T03:04:16.066Z,81.05
2019-05-03T03:05:19.881Z,80.99
2019-05-03T03:06:26.728Z,80.81
2019-05-03T03:07:31.706Z,80.88
2019-05-03T03:08:36.869Z,80.83
2019-05-03T03:09:41.043Z,81.08
2019-05-03T03:10:45.655Z,81.18
2019-05-03T03:11:50.932Z,81.09
2019-05-03T03:12:57.436Z,80.67
2019-05-03T03:14:05.713Z,80.65
2019-05-03T03:15:09.495Z,80.79
2019-05-03T03:16:15.213Z,80.60
2019-05-03T03:17:20.689Z,80.70
2019-05-03T03:18:25.533Z,81.17
2019-05-03T03:19:30.580Z,81.18
2019-05-03T03:20:37.088Z,81.08
2019-05-03T03:21:46.594Z,81.04
2019-05-03T03:22:55.387Z,81.09
2019-05-03T03:24:07.150Z,80.83
2019-05-03T03:25:13.148Z,80.76
2019-05-03T03:26:33.374Z,80.62
2019-05-03T03:27:26.948Z,80.66
2019-05-03T03:28:35.917Z,80.67
2019-05-03T03:29:41.271Z,80.81
2019-05-03T03:30:57.192Z,80.73
2019-05-03T03:32:18.216Z,80.64
2019-05-03T03:33:20.044Z,80.31
2019-05-03T03:34:28.075Z,80.48
2019-05-03T03:35:37.694Z,80.48
2019-05-03T03:37:01.025Z,80.53
2019-05-03T03:37:56.457Z,80.30
2019-05-03T03:39:00.054Z,80.50
2019-05-03T03:40:06.098Z,80.66
2019-05-03T03:41:11.393Z,80.61
2019-05-03T03:42:16.106Z,80.58
2019-05-03T03:43:21.767Z,80.26
2019-05-03T03:44:26.725Z,80.27
2019-05-03T03:45:30.679Z,80.21
2019-05-03T03:46:35.862Z,80.28
2019-05-03T03:47:39.397Z,80.37
2019-05-03T03:48:46.041Z,80.02
2019-05-03T03:49:51.829Z,79.96
2019-05-03T03:50:56.318Z,79.88
2019-05-03T03:52:01.239Z,79.48
2019-05-03T03:53:07.861Z,79.68
2019-05-03T03:54:15.542Z,79.67
2019-05-03T03:55:19.100Z,79.83
2019-05-03T03:56:25.427Z,79.92
2019-05-03T03:57:29.211Z,79.87
2019-05-03T03:58:35.623Z,79.72
2019-05-03T03:59:38.104Z,79.85
2019-05-03T04:00:41.593Z,80.17
2019-05-03T04:01:45.837Z,80.41
2019-05-03T04:02:49.520Z,80.60
2019-05-03T04:03:53.088Z,80.65
2019-05-03T04:04:57.881Z,80.77
2019-05-03T04:06:01.487Z,80.80
2019-05-03T04:07:06.535Z,81.09
2019-05-03T04:08:10.375Z,81.19
2019-05-03T04:09:16.073Z,81.22
2019-05-03T04:10:19.036Z,81.15
2019-05-03T04:11:22.637Z,81.22
2019-05-03T04:12:26.931Z,81.17
2019-05-03T04:13:30.874Z,81.05
2019-05-03T04:14:51.281Z,81.27
2019-05-03T04:16:02.287Z,81.48
2019-05-03T04:17:07.397Z,81.78
2019-05-03T04:18:28.322Z,82.04
2019-05-03T04:19:36.435Z,81.97
2019-05-03T04:20:39.167Z,81.94
2019-05-03T04:21:45.142Z,82.07
2019-05-03T04:22:48.018Z,82.18
2019-05-03T04:23:51.588Z,82.44
2019-05-03T04:24:55.689Z,82.55
2019-05-03T04:25:59.191Z,82.54
2019-05-03T04:27:15.672Z,82.24
2019-05-03T04:28:10.920Z,82.27
2019-05-03T04:29:16.107Z,82.66
2019-05-03T04:30:19.709Z,82.80
2019-05-03T04:31:25.909Z,82.60
2019-05-03T04:32:29.087Z,82.40
2019-05-03T04:33:32.689Z,82.52
2019-05-03T04:34:36.267Z,82.29
2019-05-03T04:35:39.706Z,82.29
2019-05-03T04:36:43.210Z,82.14
2019-05-03T04:37:46.643Z,82.31
2019-05-03T04:38:50.212Z,82.57
2019-05-03T04:39:56.007Z,82.22
2019-05-03T04:40:58.894Z,82.23
2019-05-03T04:42:02.553Z,82.27
2019-05-03T04:43:06.425Z,82.13
2019-05-03T04:44:09.986Z,81.82
2019-05-03T04:45:16.263Z,81.93
2019-05-03T04:46:20.478Z,81.95
2019-05-03T04:47:26.305Z,81.87
2019-05-03T04:48:29.134Z,81.66
2019-05-03T04:49:32.637Z,81.44
2019-05-03T04:50:36.941Z,81.53
2019-05-03T04:51:40.575Z,81.81
2019-05-03T04:52:46.323Z,81.83
2019-05-03T04:53:50.796Z,81.67
2019-05-03T04:54:56.540Z,81.45
2019-05-03T04:56:00.272Z,81.42
2019-05-03T04:57:06.407Z,81.47
2019-05-03T04:58:09.023Z,81.54
2019-05-03T04:59:12.624Z,81.41
2019-05-03T05:00:16.340Z,81.29
2019-05-03T05:01:19.917Z,81.27
2019-05-03T05:02:25.903Z,81.02
2019-05-03T05:03:28.644Z,80.98
2019-05-03T05:04:32.089Z,80.76
2019-05-03T05:05:36.349Z,80.90
2019-05-03T05:06:40.111Z,81.15
2019-05-03T05:07:45.661Z,81.14
2019-05-03T05:08:48.771Z,80.88
2019-05-03T05:09:52.213Z,81.15
2019-05-03T05:10:56.022Z,81.33
2019-05-03T05:11:59.453Z,81.29
2019-05-03T05:13:05.237Z,81.37
2019-05-03T05:14:09.950Z,81.17
2019-05-03T05:15:15.589Z,80.78
2019-05-03T05:16:18.814Z,80.58
2019-05-03T05:17:27.004Z,80.68
2019-05-03T05:18:35.484Z,80.90
2019-05-03T05:19:46.565Z,80.90
2019-05-03T05:21:00.382Z,81.03
2019-05-03T05:22:06.054Z,80.92
2019-05-03T05:23:09.466Z,80.83
2019-05-03T05:24:15.066Z,80.82
2019-05-03T05:25:19.839Z,81.16
2019-05-03T05:26:25.025Z,81.02
2019-05-03T05:27:30.171Z,80.93
2019-05-03T05:28:50.049Z,81.02
2019-05-03T05:29:55.405Z,81.14
2019-05-03T05:30:59.031Z,81.21
2019-05-03T05:32:02.484Z,80.90
2019-05-03T05:33:07.550Z,80.80
2019-05-03T05:34:11.129Z,80.58
2019-05-03T05:35:14.628Z,80.27
2019-05-03T05:36:18.089Z,80.18
2019-05-03T05:37:21.606Z,80.34
2019-05-03T05:38:25.760Z,80.25
2019-05-03T05:39:29.306Z,80.11
2019-05-03T05:40:34.763Z,80.33
2019-05-03T05:41:38.285Z,80.46
2019-05-03T05:42:42.125Z,80.74
2019-05-03T05:43:45.977Z,81.10
2019-05-03T05:44:49.483Z,81.16
2019-05-03T05:45:55.206Z,81.14
2019-05-03T05:47:06.204Z,80.86
2019-05-03T05:48:11.637Z,80.81
2019-05-03T05:49:16.898Z,80.74
2019-05-03T05:50:25.382Z,80.67
2019-05-03T05:51:29.243Z,80.47
2019-05-03T05:52:34.645Z,80.27
2019-05-03T05:53:38.272Z,80.10
2019-05-03T05:54:45.463Z,80.09
2019-05-03T05:55:50.860Z,79.99
2019-05-03T05:57:01.887Z,79.93
2019-05-03T05:58:09.845Z,80.16
2019-05-03T05:59:15.794Z,80.22
2019-05-03T06:00:25.757Z,80.24
2019-05-03T06:01:35.330Z,80.36
2019-05-03T06:02:38.940Z,80.32
2019-05-03T06:03:42.401Z,80.03
2019-05-03T06:04:46.024Z,80.08
2019-05-03T06:05:49.943Z,80.06
2019-05-03T06:06:58.151Z,80.12
2019-05-03T06:08:15.494Z,80.27
2019-05-03T06:09:23.112Z,80.47
2019-05-03T06:10:28.451Z,80.69
2019-05-03T06:11:34.766Z,80.73
2019-05-03T06:12:42.668Z,80.82
2019-05-03T06:13:50.644Z,80.94
2019-05-03T06:14:55.815Z,80.90
2019-05-03T06:16:05.169Z,80.93
2019-05-03T06:17:19.962Z,81.37
2019-05-03T06:18:31.186Z,81.31
2019-05-03T06:19:45.824Z,80.92
2019-05-03T06:20:51.219Z,80.86
2019-05-03T06:21:56.379Z,80.99
2019-05-03T06:23:07.610Z,80.92
2019-05-03T06:24:28.758Z,80.85
2019-05-03T06:25:35.373Z,81.10
2019-05-03T06:26:44.332Z,81.14
2019-05-03T06:27:47.817Z,81.17
2019-05-03T06:28:51.634Z,81.36
2019-05-03T06:29:57.188Z,81.37
2019-05-03T06:31:08.349Z,81.56
2019-05-03T06:32:31.340Z,81.64
2019-05-03T06:33:35.329Z,81.56
2019-05-03T06:34:39.281Z,81.42
2019-05-03T06:35:44.574Z,81.25
2019-05-03T06:36:51.538Z,81.14
2019-05-03T06:37:55.144Z,80.96
2019-05-03T06:38:58.789Z,80.70
2019-05-03T06:40:05.632Z,80.88
2019-05-03T06:41:07.779Z,80.96
2019-05-03T06:42:16.011Z,80.76
2019-05-03T06:43:17.071Z,80.81
2019-05-03T06:44:24.851Z,80.69
2019-05-03T06:45:25.993Z,80.22
2019-05-03T06:46:48.054Z,80.30
2019-05-03T06:47:51.684Z,80.45
2019-05-03T06:48:55.738Z,80.61
2019-05-03T06:49:59.833Z,80.58
2019-05-03T06:51:08.703Z,80.61
2019-05-03T06:52:09.125Z,80.73
2019-05-03T06:53:13.575Z,80.79
2019-05-03T06:54:20.502Z,80.92
2019-05-03T06:55:24.779Z,80.70
2019-05-03T06:56:29.212Z,80.73
2019-05-03T06:57:32.868Z,80.86
2019-05-03T06:58:36.725Z,80.72
2019-05-03T06:59:47.587Z,80.42
2019-05-03T07:00:52.779Z,80.32
2019-05-03T07:02:05.603Z,80.22
2019-05-03T07:03:15.083Z,80.33
2019-05-03T07:04:26.418Z,80.19
2019-05-03T07:05:31.521Z,80.25
2019-05-03T07:06:40.860Z,80.05
2019-05-03T07:07:48.777Z,80.30
2019-05-03T07:08:59.578Z,81.11
2019-05-03T07:10:21.213Z,81.31
2019-05-03T07:11:24.973Z,81.56
2019-05-03T07:12:30.346Z,81.47
2019-05-03T07:13:34.635Z,81.46
2019-05-03T07:14:38.400Z,81.47
2019-05-03T07:15:41.867Z,81.26
2019-05-03T07:16:45.642Z,81.47
2019-05-03T07:17:49.547Z,81.41
2019-05-03T07:18:56.492Z,81.37
2019-05-03T07:19:58.232Z,81.35
2019-05-03T07:21:01.690Z,81.36
2019-05-03T07:22:05.265Z,81.29
2019-05-03T07:23:08.716Z,81.05
2019-05-03T07:24:12.224Z,81.12
2019-05-03T07:25:15.802Z,81.23
2019-05-03T07:26:19.257Z,81.17
2019-05-03T07:27:24.630Z,81.17
2019-05-03T07:28:27.864Z,81.18
2019-05-03T07:29:31.379Z,81.04
2019-05-03T07:30:36.945Z,81.32
2019-05-03T07:31:40.212Z,81.20
2019-05-03T07:32:45.299Z,81.04
2019-05-03T07:33:48.759Z,80.91
2019-05-03T07:34:52.205Z,80.68
2019-05-03T07:35:55.721Z,80.92
2019-05-03T07:36:59.215Z,80.56
2019-05-03T07:38:02.718Z,80.46
2019-05-03T07:39:08.084Z,80.39
2019-05-03T07:40:11.870Z,80.30
2019-05-03T07:41:15.442Z,79.90
2019-05-03T07:42:18.895Z,80.08
2019-05-03T07:43:24.385Z,80.17
2019-05-03T07:44:27.679Z,79.98
2019-05-03T07:45:31.153Z,80.05
2019-05-03T07:46:34.949Z,80.49
2019-05-03T07:47:38.482Z,80.69
2019-05-03T07:48:42.001Z,80.60
2019-05-03T07:49:45.442Z,80.52
2019-05-03T07:50:48.954Z,80.62
2019-05-03T07:51:52.405Z,80.89
2019-05-03T07:52:56.001Z,80.99
2019-05-03T07:53:59.563Z,81.30
2019-05-03T07:55:04.632Z,81.43
2019-05-03T07:56:12.664Z,81.42
2019-05-03T07:57:18.240Z,81.31
2019-05-03T07:58:35.321Z,81.13
2019-05-03T07:59:38.697Z,81.09
2019-05-03T08:00:44.419Z,80.57
2019-05-03T08:01:49.038Z,80.73
2019-05-03T08:02:52.596Z,80.83
2019-05-03T08:03:56.032Z,80.75
2019-05-03T08:04:59.480Z,80.65
2019-05-03T08:06:04.744Z,80.74
2019-05-03T08:07:19.873Z,80.76
2019-05-03T08:08:14.927Z,80.54
2019-05-03T08:09:18.800Z,80.09
2019-05-03T08:10:22.309Z,80.21
2019-05-03T08:11:25.819Z,80.24
2019-05-03T08:12:29.325Z,80.24
2019-05-03T08:13:32.933Z,79.86
2019-05-03T08:14:36.371Z,79.82
2019-05-03T08:15:39.814Z,79.67
2019-05-03T08:16:45.497Z,79.79
2019-05-03T08:17:48.807Z,79.79
2019-05-03T08:18:52.275Z,79.44
2019-05-03T08:19:55.745Z,79.28
2019-05-03T08:20:59.374Z,78.93
2019-05-03T08:22:04.600Z,79.39
2019-05-03T08:23:08.025Z,79.83
2019-05-03T08:24:11.488Z,79.68
2019-05-03T08:25:15.025Z,79.13
2019-05-03T08:26:18.449Z,79.27
2019-05-03T08:27:21.959Z,79.18
2019-05-03T08:28:25.402Z,78.18
2019-05-03T08:29:28.957Z,78.34
2019-05-03T08:30:48.647Z,78.63
2019-05-03T08:31:56.259Z,78.75
2019-05-03T08:33:05.554Z,78.34
2019-05-03T08:34:10.667Z,78.10
2019-05-03T08:35:15.882Z,78.14
2019-05-03T08:36:19.334Z,77.78
2019-05-03T08:37:28.063Z,77.92
2019-05-03T08:38:31.791Z,77.92
2019-05-03T08:39:35.786Z,77.50
2019-05-03T08:40:41.136Z,77.74
2019-05-03T08:41:46.217Z,77.79
2019-05-03T08:42:49.673Z,77.73
2019-05-03T08:43:54.964Z,77.30
2019-05-03T08:44:58.535Z,77.48
2019-05-03T08:46:02.050Z,77.24
2019-05-03T08:47:05.560Z,77.04
2019-05-03T08:48:09.137Z,77.39
2019-05-03T08:49:12.562Z,77.58
2019-05-03T08:50:21.222Z,77.90
2019-05-03T08:51:21.457Z,78.16
2019-05-03T08:52:25.033Z,77.97
2019-05-03T08:53:28.490Z,77.97
2019-05-03T08:54:31.941Z,77.68
2019-05-03T08:55:35.435Z,77.74
2019-05-03T08:56:38.844Z,77.84
2019-05-03T08:57:44.602Z,77.61
2019-05-03T08:58:47.579Z,77.55
2019-05-03T08:59:51.027Z,77.96
2019-05-03T09:00:55.013Z,77.61
2019-05-03T09:01:58.934Z,77.48
2019-05-03T09:03:05.258Z,77.66
2019-05-03T09:04:08.840Z,77.78
2019-05-03T09:05:12.632Z,77.19
2019-05-03T09:06:16.095Z,77.21
2019-05-03T09:07:19.639Z,77.36
2019-05-03T09:08:24.861Z,77.37
2019-05-03T09:09:29.861Z,76.95
2019-05-03T09:10:51.281Z,77.16
2019-05-03T09:11:55.619Z,77.87
2019-05-03T09:13:09.574Z,77.96
2019-05-03T09:14:17.243Z,78.04
2019-05-03T09:15:21.762Z,78.02
2019-05-03T09:16:25.367Z,78.03
2019-05-03T09:17:28.883Z,78.44
2019-05-03T09:18:32.349Z,78.54
2019-05-03T09:19:35.789Z,78.84
2019-05-03T09:20:39.258Z,79.71
2019-05-03T09:21:42.779Z,79.98
2019-05-03T09:22:46.236Z,80.20
2019-05-03T09:23:49.727Z,80.13
2019-05-03T09:24:54.556Z,80.41
2019-05-03T09:25:58.176Z,80.58
2019-05-03T09:27:01.801Z,79.78
2019-05-03T09:28:05.982Z,79.73
2019-05-03T09:29:09.407Z,79.38
2019-05-03T09:30:14.541Z,79.25
2019-05-03T09:31:18.104Z,79.21
2019-05-03T09:32:21.627Z,79.71
2019-05-03T09:33:25.159Z,80.21
2019-05-03T09:34:28.671Z,80.32
2019-05-03T09:35:35.253Z,80.72
2019-05-03T09:36:37.418Z,80.96
2019-05-03T09:37:40.836Z,81.24
2019-05-03T09:38:45.843Z,81.51
2019-05-03T09:39:49.356Z,82.01
2019-05-03T09:40:54.597Z,81.63
2019-05-03T09:41:58.128Z,80.58
2019-05-03T09:43:01.637Z,80.35
2019-05-03T09:44:05.321Z,80.77
2019-05-03T09:45:09.021Z,81.34
2019-05-03T09:46:14.394Z,81.44
2019-05-03T09:47:17.638Z,81.50
2019-05-03T09:48:21.071Z,81.45
2019-05-03T09:49:25.328Z,81.24
2019-05-03T09:50:28.993Z,81.33
2019-05-03T09:51:32.430Z,81.63
2019-05-03T09:52:36.076Z,81.77
2019-05-03T09:53:46.931Z,81.85
2019-05-03T09:54:52.021Z,81.72
2019-05-03T09:55:55.686Z,82.20
2019-05-03T09:57:01.879Z,82.47
2019-05-03T09:58:05.690Z,82.55
2019-05-03T09:59:09.130Z,82.12
2019-05-03T10:00:13.587Z,81.90
2019-05-03T10:01:17.019Z,81.96
2019-05-03T10:02:21.344Z,81.65
2019-05-03T10:03:24.862Z,81.90
2019-05-03T10:04:28.369Z,81.75
2019-05-03T10:05:31.851Z,81.67
2019-05-03T10:06:35.936Z,81.83
2019-05-03T10:07:39.514Z,81.82
2019-05-03T10:08:45.292Z,81.76
2019-05-03T10:09:48.110Z,81.57
2019-05-03T10:11:09.243Z,82.13
2019-05-03T10:12:25.283Z,82.43
2019-05-03T10:13:28.319Z,82.29
2019-05-03T10:14:31.836Z,82.38
2019-05-03T10:15:39.644Z,82.26
2019-05-03T10:16:47.585Z,81.52
2019-05-03T10:17:52.672Z,80.60
2019-05-03T10:18:56.176Z,80.91
2019-05-03T10:19:59.615Z,81.16
2019-05-03T10:21:05.088Z,80.77
2019-05-03T10:22:08.571Z,80.48
2019-05-03T10:23:14.865Z,80.22
2019-05-03T10:24:18.339Z,80.04
2019-05-03T10:25:21.908Z,79.06
2019-05-03T10:26:26.403Z,78.45
2019-05-03T10:27:31.557Z,78.19
2019-05-03T10:28:35.155Z,77.74
2019-05-03T10:29:38.579Z,77.36
2019-05-03T10:30:42.015Z,77.67
2019-05-03T10:31:47.082Z,77.27
2019-05-03T10:32:52.240Z,77.18
2019-05-03T10:33:59.979Z,77.16
2019-05-03T10:35:05.798Z,77.33
2019-05-03T10:36:09.287Z,76.91
2019-05-03T10:37:31.646Z,77.39
2019-05-03T10:38:35.251Z,77.31
2019-05-03T10:39:38.892Z,76.82
2019-05-03T10:40:42.330Z,76.69
2019-05-03T10:41:45.833Z,76.89
2019-05-03T10:42:49.358Z,76.89
2019-05-03T10:43:52.952Z,76.49
2019-05-03T10:44:56.462Z,76.47
2019-05-03T10:45:59.893Z,75.57
2019-05-03T10:47:05.488Z,75.22
2019-05-03T10:48:08.741Z,75.62
2019-05-03T10:49:12.165Z,75.77
2019-05-03T10:50:15.742Z,75.64
2019-05-03T10:51:19.169Z,76.29
2019-05-03T10:52:25.748Z,76.31
2019-05-03T10:53:39.558Z,76.12
2019-05-03T10:54:42.998Z,76.08
2019-05-03T10:55:57.039Z,75.75
2019-05-03T10:57:15.891Z,76.31
2019-05-03T10:58:19.700Z,76.34
2019-05-03T10:59:24.808Z,76.29
2019-05-03T11:00:50.334Z,75.87
2019-05-03T11:01:45.200Z,76.48
2019-05-03T11:02:56.207Z,76.49
2019-05-03T11:03:59.669Z,76.28
2019-05-03T11:05:05.126Z,75.95
2019-05-03T11:06:08.649Z,76.09
2019-05-03T11:07:12.156Z,74.65
2019-05-03T11:08:15.594Z,75.51
2019-05-03T11:09:19.050Z,75.54
2019-05-03T11:10:22.554Z,75.75
2019-05-03T11:11:26.035Z,75.76
2019-05-03T11:12:29.528Z,74.20
2019-05-03T11:13:34.875Z,73.70
2019-05-03T11:14:38.430Z,74.30
2019-05-03T11:15:41.927Z,74.27
2019-05-03T11:16:46.186Z,74.52
2019-05-03T11:17:49.769Z,74.49
2019-05-03T11:18:54.886Z,73.38
2019-05-03T11:19:58.505Z,72.24
2019-05-03T11:21:01.940Z,72.25
2019-05-03T11:22:05.701Z,72.30
2019-05-03T11:23:09.603Z,71.60
2019-05-03T11:24:14.736Z,71.87
2019-05-03T11:25:18.619Z,71.75
2019-05-03T11:26:22.042Z,71.74
2019-05-03T11:27:30.082Z,70.87
2019-05-03T11:28:35.360Z,71.79
2019-05-03T11:29:39.258Z,71.85
2019-05-03T11:30:53.125Z,71.86
2019-05-03T11:31:55.126Z,71.77
2019-05-03T11:33:06.302Z,71.23
2019-05-03T11:34:11.486Z,70.67
2019-05-03T11:35:16.539Z,69.31
2019-05-03T11:36:21.683Z,69.62
2019-05-03T11:37:41.534Z,70.05
2019-05-03T11:38:45.791Z,70.20
2019-05-03T11:39:49.957Z,70.17
2019-05-03T11:40:55.819Z,70.05
2019-05-03T11:41:59.456Z,69.18
2019-05-03T11:43:04.669Z,69.54
2019-05-03T11:44:26.265Z,69.52
2019-05-03T11:45:29.932Z,69.29
2019-05-03T11:46:35.397Z,69.57
2019-05-03T11:47:39.417Z,69.34
2019-05-03T11:48:43.057Z,68.67
2019-05-03T11:49:46.663Z,68.87
2019-05-03T11:50:50.266Z,69.34
2019-05-03T11:51:55.638Z,69.06
2019-05-03T11:52:59.136Z,68.52
2019-05-03T11:54:05.795Z,67.78
2019-05-03T11:55:11.512Z,68.31
2019-05-03T11:56:14.824Z,67.95
2019-05-03T11:57:23.984Z,67.88
2019-05-03T11:58:28.337Z,69.13
2019-05-03T11:59:32.016Z,69.58
2019-05-03T12:00:37.262Z,69.92
2019-05-03T12:01:51.738Z,69.85
2019-05-03T12:02:57.021Z,69.73
2019-05-03T12:04:00.453Z,69.62
2019-05-03T12:05:11.884Z,69.11
2019-05-03T12:06:15.786Z,69.21
2019-05-03T12:07:39.955Z,69.06
2019-05-03T12:08:39.238Z,68.20
2019-05-03T12:09:45.126Z,68.48
2019-05-03T12:10:57.185Z,68.58
2019-05-03T12:11:55.502Z,68.23
2019-05-03T12:13:05.081Z,68.12
2019-05-03T12:14:12.505Z,68.34
2019-05-03T12:15:16.765Z,67.68
2019-05-03T12:16:32.812Z,67.91
2019-05-03T12:17:29.687Z,68.54
2019-05-03T12:18:48.041Z,68.35
2019-05-03T12:19:39.821Z,68.58
2019-05-03T12:20:46.537Z,68.64
2019-05-03T12:21:49.875Z,69.03
2019-05-03T12:22:54.470Z,68.62
2019-05-03T12:23:58.943Z,68.86
2019-05-03T12:25:09.383Z,68.78
2019-05-03T12:26:13.043Z,68.84
2019-05-03T12:27:15.053Z,68.63
2019-05-03T12:28:19.037Z,69.17
2019-05-03T12:29:24.474Z,69.38
2019-05-03T12:30:28.021Z,69.49
2019-05-03T12:31:38.062Z,69.61
2019-05-03T12:32:37.129Z,69.65
2019-05-03T12:33:40.912Z,70.42
2019-05-03T12:34:44.565Z,70.65
2019-05-03T12:35:48.546Z,71.64
2019-05-03T12:36:52.210Z,72.30
2019-05-03T12:37:55.923Z,72.73
2019-05-03T12:38:59.569Z,72.79
2019-05-03T12:40:05.526Z,73.35
2019-05-03T12:41:09.513Z,73.77
2019-05-03T12:42:14.866Z,74.02
2019-05-03T12:43:18.492Z,73.79
2019-05-03T12:44:21.948Z,73.60
2019-05-03T12:45:25.461Z,73.79
2019-05-03T12:46:29.030Z,73.79
2019-05-03T12:47:34.487Z,74.01
2019-05-03T12:48:37.724Z,74.08
2019-05-03T12:49:41.199Z,74.00
2019-05-03T12:50:46.438Z,74.20
2019-05-03T12:51:49.927Z,74.06
2019-05-03T12:52:55.392Z,74.01
2019-05-03T12:53:58.795Z,73.92
2019-05-03T12:55:04.453Z,73.37
2019-05-03T12:56:11.862Z,73.68
2019-05-03T12:57:12.690Z,74.25
2019-05-03T12:58:16.136Z,74.10
2019-05-03T12:59:36.217Z,73.59
2019-05-03T13:00:56.352Z,73.61
2019-05-03T13:02:04.878Z,73.83
2019-05-03T13:03:12.677Z,73.48
2019-05-03T13:04:29.512Z,73.19
2019-05-03T13:05:32.964Z,73.38
2019-05-03T13:06:38.132Z,73.26
2019-05-03T13:07:45.962Z,73.43
2019-05-03T13:08:49.422Z,73.64
2019-05-03T13:09:54.517Z,73.77
2019-05-03T13:10:58.004Z,73.91
2019-05-03T13:12:01.540Z,73.85
2019-05-03T13:13:05.307Z,74.10
2019-05-03T13:14:08.752Z,74.28
2019-05-03T13:15:14.473Z,74.29
2019-05-03T13:16:19.367Z,74.33
2019-05-03T13:17:25.403Z,74.23
2019-05-03T13:18:29.722Z,74.10
2019-05-03T13:19:34.951Z,74.02
2019-05-03T13:20:41.021Z,73.96
2019-05-03T13:21:45.515Z,74.07
2019-05-03T13:22:49.286Z,74.30
2019-05-03T13:23:54.844Z,74.41
2019-05-03T13:24:58.917Z,74.25
2019-05-03T13:26:05.241Z,73.62
2019-05-03T13:27:08.705Z,73.34
2019-05-03T13:28:15.179Z,73.14
2019-05-03T13:29:20.164Z,72.62
2019-05-03T13:30:25.077Z,72.41
2019-05-03T13:31:29.212Z,72.41
2019-05-03T13:32:34.938Z,72.46
2019-05-03T13:33:39.269Z,72.29
2019-05-03T13:34:44.728Z,72.19
2019-05-03T13:35:48.824Z,72.09
2019-05-03T13:36:54.832Z,71.28
2019-05-03T13:37:58.452Z,71.43
2019-05-03T13:39:11.436Z,71.29
2019-05-03T13:40:09.023Z,71.01
2019-05-03T13:41:12.831Z,70.72
2019-05-03T13:42:17.162Z,70.41
2019-05-03T13:43:22.412Z,70.21
2019-05-03T13:44:26.299Z,70.15
2019-05-03T13:45:30.258Z,70.10
2019-05-03T13:46:35.327Z,70.28
2019-05-03T13:47:39.735Z,70.56
2019-05-03T13:48:48.404Z,70.15
2019-05-03T13:49:50.050Z,70.17
2019-05-03T13:50:55.165Z,70.21
2019-05-03T13:51:59.585Z,69.85
2019-05-03T13:53:04.874Z,69.70
2019-05-03T13:54:09.096Z,69.67
2019-05-03T13:55:14.550Z,69.65
2019-05-03T13:56:21.316Z,69.56
2019-05-03T13:57:25.708Z,69.74
2019-05-03T13:58:31.611Z,69.69
2019-05-03T13:59:35.619Z,69.92
2019-05-03T14:00:39.819Z,69.69
2019-05-03T14:01:45.054Z,69.68
2019-05-03T14:02:48.807Z,69.62
2019-05-03T14:03:54.538Z,69.51